Time;durP1;ratioP1;P1;durP2;ratioP2;P2;SDS_P1;SDS_P2;PMS_P1;PMS_P2;Temp;Humidity;BMP_temperature;BMP_pressure;BME280_temperature;BME280_humidity;BME280_pressure;Samples;Min_cycle;Max_cycle;Signal;HPM_P1;HPM_P2
2023/05/01 00:03:40;;;;;;;2.72;2.03;;;;;;;;;;8287160;28;20960;-72
2023/05/01 00:07:40;;;;;;;3.17;2.47;;;;;;;;;;8287405;28;20021;-72
2023/05/01 00:11:41;;;;;;;4.95;2.60;;;;;;;;;;8292488;28;20057;-72
2023/05/01 00:15:42;;;;;;;2.87;2.40;;;;;;;;;;8287489;28;20044;-72
2023/05/01 00:19:42;;;;;;;2.10;1.90;;;;;;;;;;8286623;28;20275;-72
2023/05/01 00:23:42;;;;;;;3.05;1.70;;;;;;;;;;8281853;28;20029;-72
2023/05/01 00:27:42;;;;;;;4.55;1.92;;;;;;;;;;8282868;28;20034;-72
2023/05/01 00:31:42;;;;;;;2.53;1.60;;;;;;;;;;8287059;28;20477;-71
2023/05/01 00:35:43;;;;;;;1.85;1.60;;;;;;;;;;8287834;28;20920;-72
2023/05/01 00:39:44;;;;;;;2.38;1.95;;;;;;;;;;8285706;28;20036;-71
2023/05/01 00:43:44;;;;;;;2.97;2.20;;;;;;;;;;8286565;28;20470;-72
2023/05/01 00:47:44;;;;;;;3.88;1.65;;;;;;;;;;8286757;28;21076;-71
2023/05/01 00:51:46;;;;;;;3.47;1.50;;;;;;;;;;8291690;28;20035;-72
2023/05/01 00:55:47;;;;;;;1.75;1.60;;;;;;;;;;8295377;28;20025;-72
2023/05/01 00:59:47;;;;;;;1.70;1.60;;;;;;;;;;8288314;28;20037;-71
2023/05/01 01:03:50;;;;;;;1.88;1.70;;;;;;;;;;8284877;28;20050;-72
2023/05/01 01:08:03;;;;;;;2.15;1.55;;;;;;;;;;8289084;28;20036;-72
2023/05/01 01:12:03;;;;;;;1.73;1.50;;;;;;;;;;8288526;28;20038;-72
2023/05/01 01:16:22;;;;;;;1.85;1.58;;;;;;;;;;8287418;28;20064;-72
2023/05/01 01:20:54;;;;;;;2.90;1.75;;;;;;;;;;8285107;28;20025;-72
2023/05/01 01:24:57;;;;;;;1.77;1.65;;;;;;;;;;8291236;28;20044;-71
2023/05/01 01:29:18;;;;;;;2.00;1.60;;;;;;;;;;8284283;28;20083;-72
2023/05/01 01:33:22;;;;;;;1.52;1.42;;;;;;;;;;8283742;28;20037;-71
2023/05/01 01:37:41;;;;;;;3.08;1.50;;;;;;;;;;8285980;28;20041;-72
2023/05/01 01:41:43;;;;;;;3.13;2.83;;;;;;;;;;8292852;28;20037;-71
2023/05/01 01:45:46;;;;;;;2.95;2.50;;;;;;;;;;8284470;28;20135;-71
2023/05/01 01:49:51;;;;;;;3.13;1.55;;;;;;;;;;8290288;28;20037;-72
2023/05/01 01:53:52;;;;;;;2.42;1.70;;;;;;;;;;8293654;28;20106;-72
2023/05/01 01:57:53;;;;;;;3.58;1.90;;;;;;;;;;8286745;28;20029;-72
2023/05/01 02:01:55;;;;;;;2.00;1.77;;;;;;;;;;8286042;28;20156;-72
2023/05/01 02:05:55;;;;;;;1.70;1.60;;;;;;;;;;8292692;28;20029;-72
2023/05/01 02:09:56;;;;;;;3.45;3.10;;;;;;;;;;8289778;28;20781;-71
2023/05/01 02:13:58;;;;;;;2.08;1.75;;;;;;;;;;8283880;28;20069;-72
2023/05/01 02:18:01;;;;;;;2.55;1.80;;;;;;;;;;8282725;28;20543;-71
2023/05/01 02:22:01;;;;;;;2.67;1.95;;;;;;;;;;8284063;28;20056;-71
2023/05/01 02:26:02;;;;;;;3.28;2.38;;;;;;;;;;8292829;28;20797;-72
2023/05/01 02:30:04;;;;;;;2.78;2.13;;;;;;;;;;8283470;28;20033;-73
2023/05/01 02:34:04;;;;;;;2.05;1.80;;;;;;;;;;8286429;28;20108;-72
2023/05/01 02:38:05;;;;;;;2.63;2.07;;;;;;;;;;8290436;28;20025;-72
2023/05/01 02:42:08;;;;;;;2.20;2.00;;;;;;;;;;8286464;28;20786;-72
2023/05/01 02:46:09;;;;;;;4.00;1.80;;;;;;;;;;8283790;28;20044;-71
2023/05/01 02:50:09;;;;;;;2.20;1.80;;;;;;;;;;8285970;28;20659;-71
2023/05/01 02:54:09;;;;;;;2.15;1.95;;;;;;;;;;8289478;28;20032;-72
2023/05/01 02:58:16;;;;;;;2.22;1.65;;;;;;;;;;8282913;28;20033;-72
2023/05/01 03:02:17;;;;;;;2.65;2.30;;;;;;;;;;8283112;28;20037;-72
2023/05/01 03:06:18;;;;;;;2.15;1.83;;;;;;;;;;8292028;28;20814;-72
2023/05/01 03:10:18;;;;;;;1.63;1.50;;;;;;;;;;8281883;28;20025;-72
2023/05/01 03:14:18;;;;;;;2.33;1.80;;;;;;;;;;8290427;28;20479;-71
2023/05/01 03:18:18;;;;;;;3.03;1.65;;;;;;;;;;8297315;28;20290;-72
2023/05/01 03:22:19;;;;;;;2.05;1.73;;;;;;;;;;8290201;28;20124;-71
2023/05/01 03:26:19;;;;;;;3.03;1.95;;;;;;;;;;8294803;28;20088;-72
2023/05/01 03:30:19;;;;;;;2.88;2.25;;;;;;;;;;8295105;28;20040;-72
2023/05/01 03:34:19;;;;;;;2.83;2.33;;;;;;;;;;8297300;28;20414;-71
2023/05/01 03:38:20;;;;;;;7.88;4.30;;;;;;;;;;8289053;28;20052;-72
2023/05/01 03:42:20;;;;;;;7.73;4.30;;;;;;;;;;8291560;28;20033;-72
2023/05/01 03:46:20;;;;;;;4.28;2.45;;;;;;;;;;8290156;28;20037;-71
2023/05/01 03:50:20;;;;;;;2.53;1.83;;;;;;;;;;8290558;28;20914;-71
2023/05/01 03:54:20;;;;;;;1.90;1.70;;;;;;;;;;8287728;28;20025;-72
2023/05/01 03:58:21;;;;;;;3.13;1.77;;;;;;;;;;8290782;28;20110;-72
2023/05/01 04:02:22;;;;;;;2.88;1.75;;;;;;;;;;8289679;28;20033;-72
2023/05/01 04:06:22;;;;;;;2.53;2.05;;;;;;;;;;8295595;28;20124;-71
2023/05/01 04:10:22;;;;;;;2.35;1.55;;;;;;;;;;8290772;28;20025;-72
2023/05/01 04:14:22;;;;;;;3.25;1.92;;;;;;;;;;8291203;28;20065;-72
2023/05/01 04:18:23;;;;;;;2.83;1.50;;;;;;;;;;8280358;28;20109;-72
2023/05/01 04:22:23;;;;;;;2.28;1.70;;;;;;;;;;8292569;28;20064;-72
2023/05/01 04:26:23;;;;;;;4.17;2.00;;;;;;;;;;8288194;28;20025;-72
2023/05/01 04:30:23;;;;;;;3.30;2.05;;;;;;;;;;8283935;28;20268;-72
2023/05/01 04:34:28;;;;;;;2.33;1.80;;;;;;;;;;8290889;28;20025;-73
2023/05/01 04:38:29;;;;;;;2.42;1.73;;;;;;;;;;8285546;28;20030;-72
2023/05/01 04:42:30;;;;;;;2.58;1.73;;;;;;;;;;8285796;28;20125;-72
2023/05/01 04:46:30;;;;;;;4.32;1.80;;;;;;;;;;8287159;28;20062;-72
2023/05/01 04:50:31;;;;;;;3.03;1.80;;;;;;;;;;8287412;28;20033;-72
2023/05/01 04:54:31;;;;;;;3.33;2.00;;;;;;;;;;8286468;28;20868;-72
2023/05/01 04:58:31;;;;;;;3.17;2.17;;;;;;;;;;8293465;28;20025;-72
2023/05/01 05:02:31;;;;;;;4.28;2.00;;;;;;;;;;8285698;28;20469;-72
2023/05/01 05:06:31;;;;;;;2.58;1.92;;;;;;;;;;8283768;28;20084;-72
2023/05/01 05:10:31;;;;;;;2.72;1.90;;;;;;;;;;8286475;28;20061;-74
2023/05/01 05:14:32;;;;;;;4.10;2.03;;;;;;;;;;8289061;28;20030;-74
2023/05/01 05:18:32;;;;;;;2.20;1.65;;;;;;;;;;8285579;28;20037;-74
2023/05/01 05:22:35;;;;;;;3.75;1.90;;;;;;;;;;8287647;28;20029;-74
2023/05/01 05:26:35;;;;;;;3.72;1.80;;;;;;;;;;8294133;28;20087;-74
2023/05/01 05:30:35;;;;;;;2.85;2.08;;;;;;;;;;8287846;28;20528;-74
2023/05/01 05:34:36;;;;;;;2.97;2.00;;;;;;;;;;8289570;28;20021;-74
2023/05/01 05:38:36;;;;;;;3.38;2.03;;;;;;;;;;8286867;28;20106;-73
2023/05/01 05:42:36;;;;;;;2.90;2.15;;;;;;;;;;8287358;28;20493;-74
2023/05/01 05:46:37;;;;;;;3.28;1.88;;;;;;;;;;8279091;28;20030;-75
2023/05/01 05:50:37;;;;;;;3.35;2.10;;;;;;;;;;8288095;28;20036;-74
2023/05/01 05:54:38;;;;;;;3.67;2.00;;;;;;;;;;8292186;28;20025;-73
2023/05/01 05:58:38;;;;;;;5.82;2.00;;;;;;;;;;8286265;28;20052;-74
2023/05/01 06:02:38;;;;;;;2.97;2.00;;;;;;;;;;8286212;28;20029;-74
2023/05/01 06:06:38;;;;;;;2.77;2.23;;;;;;;;;;8280595;28;20108;-73
2023/05/01 06:10:40;;;;;;;5.05;2.30;;;;;;;;;;8282980;28;20329;-74
2023/05/01 06:14:40;;;;;;;2.40;1.90;;;;;;;;;;8283968;28;20025;-74
2023/05/01 06:18:41;;;;;;;5.10;2.00;;;;;;;;;;8285576;28;20160;-73
2023/05/01 06:22:41;;;;;;;3.22;1.98;;;;;;;;;;8279065;28;20041;-74
2023/05/01 06:26:41;;;;;;;3.30;2.20;;;;;;;;;;8271444;28;20079;-74
2023/05/01 06:30:41;;;;;;;4.75;2.13;;;;;;;;;;8286950;28;21275;-74
2023/05/01 06:34:42;;;;;;;4.32;2.05;;;;;;;;;;8279385;28;20522;-73
2023/05/01 06:38:47;;;;;;;5.57;2.42;;;;;;;;;;8288959;28;20151;-74
2023/05/01 06:42:47;;;;;;;2.05;1.80;;;;;;;;;;8285163;28;20063;-74
2023/05/01 06:46:47;;;;;;;4.22;2.28;;;;;;;;;;8285018;28;20034;-74
2023/05/01 06:50:48;;;;;;;2.35;1.85;;;;;;;;;;8290247;28;20716;-74
2023/05/01 06:54:48;;;;;;;3.43;2.30;;;;;;;;;;8300445;28;20040;-74
2023/05/01 06:58:48;;;;;;;4.65;2.20;;;;;;;;;;8279182;28;20288;-74
2023/05/01 07:02:48;;;;;;;3.10;2.20;;;;;;;;;;8296148;28;20069;-74
2023/05/01 07:06:48;;;;;;;3.78;1.92;;;;;;;;;;8291665;28;20032;-74
2023/05/01 07:10:49;;;;;;;3.22;2.00;;;;;;;;;;8288367;28;20851;-74
2023/05/01 07:14:49;;;;;;;2.95;1.95;;;;;;;;;;8291858;28;20033;-74
2023/05/01 07:18:49;;;;;;;2.40;2.20;;;;;;;;;;8284395;28;20566;-74
2023/05/01 07:22:49;;;;;;;2.60;2.05;;;;;;;;;;8286652;28;20029;-74
2023/05/01 07:26:50;;;;;;;3.67;2.08;;;;;;;;;;8292472;28;20040;-74
2023/05/01 07:30:50;;;;;;;4.90;2.20;;;;;;;;;;8283653;28;20759;-74
2023/05/01 07:34:51;;;;;;;3.53;2.00;;;;;;;;;;8286285;28;20091;-74
2023/05/01 07:38:51;;;;;;;2.83;1.92;;;;;;;;;;8286055;28;20033;-74
2023/05/01 07:42:51;;;;;;;2.58;2.20;;;;;;;;;;8293777;28;20111;-74
2023/05/01 07:46:52;;;;;;;6.97;2.35;;;;;;;;;;8285361;28;20048;-75
2023/05/01 07:50:52;;;;;;;2.60;1.88;;;;;;;;;;8288786;28;20044;-74
2023/05/01 07:54:52;;;;;;;3.00;2.20;;;;;;;;;;8291069;28;20556;-74
2023/05/01 07:58:52;;;;;;;2.10;1.90;;;;;;;;;;8279835;28;20029;-74
2023/05/01 08:02:53;;;;;;;4.32;2.20;;;;;;;;;;8286370;28;20703;-74
2023/05/01 08:06:53;;;;;;;4.13;2.30;;;;;;;;;;8288422;28;20021;-74
2023/05/01 08:10:53;;;;;;;5.85;2.35;;;;;;;;;;8285943;28;20284;-74
2023/05/01 08:14:53;;;;;;;4.07;2.60;;;;;;;;;;8286543;28;20498;-74
2023/05/01 08:18:53;;;;;;;3.72;2.20;;;;;;;;;;8285692;28;20072;-74
2023/05/01 08:22:54;;;;;;;3.63;2.22;;;;;;;;;;8285207;28;20733;-74
2023/05/01 08:26:54;;;;;;;2.40;2.20;;;;;;;;;;8288380;28;20022;-74
2023/05/01 08:30:54;;;;;;;6.95;2.75;;;;;;;;;;8285939;28;20269;-74
2023/05/01 08:34:54;;;;;;;4.37;2.30;;;;;;;;;;8286901;28;20033;-74
2023/05/01 08:38:55;;;;;;;3.25;2.45;;;;;;;;;;8274651;28;20868;-74
2023/05/01 08:42:55;;;;;;;4.90;2.47;;;;;;;;;;8287457;28;20037;-74
2023/05/01 08:47:06;;;;;;;3.42;2.30;;;;;;;;;;8285505;28;20045;-74
2023/05/01 08:51:08;;;;;;;2.75;2.50;;;;;;;;;;8286468;28;20036;-75
2023/05/01 08:55:13;;;;;;;3.08;2.53;;;;;;;;;;8295409;28;20037;-75
2023/05/01 08:59:13;;;;;;;2.75;2.47;;;;;;;;;;8289403;28;20033;-75
2023/05/01 09:03:14;;;;;;;4.40;2.60;;;;;;;;;;8286078;28;20033;-75
2023/05/01 09:07:15;;;;;;;3.40;2.67;;;;;;;;;;8291075;28;20107;-75
2023/05/01 09:11:15;;;;;;;2.83;2.50;;;;;;;;;;8281229;28;20045;-75
2023/05/01 09:15:15;;;;;;;3.77;2.97;;;;;;;;;;8284054;28;20564;-75
2023/05/01 09:19:15;;;;;;;7.83;3.37;;;;;;;;;;8283876;28;20983;-75
2023/05/01 09:23:16;;;;;;;5.72;2.92;;;;;;;;;;8283951;28;20136;-75
2023/05/01 09:27:16;;;;;;;3.72;3.03;;;;;;;;;;8287508;28;20033;-75
2023/05/01 09:31:24;;;;;;;4.00;2.85;;;;;;;;;;8287771;28;20040;-75
2023/05/01 09:35:25;;;;;;;5.05;2.83;;;;;;;;;;8298003;28;20167;-74
2023/05/01 09:39:25;;;;;;;3.30;2.95;;;;;;;;;;8283553;28;20785;-75
2023/05/01 09:43:26;;;;;;;3.67;2.95;;;;;;;;;;8289224;28;20036;-75
2023/05/01 09:47:27;;;;;;;3.88;2.88;;;;;;;;;;8287315;28;20097;-74
2023/05/01 09:51:29;;;;;;;4.15;2.80;;;;;;;;;;8282078;28;20033;-74
2023/05/01 09:55:29;;;;;;;4.13;2.72;;;;;;;;;;8284907;28;20467;-74
2023/05/01 09:59:33;;;;;;;3.97;2.67;;;;;;;;;;8280616;28;20920;-75
2023/05/01 10:03:33;;;;;;;3.53;2.90;;;;;;;;;;8280997;28;20777;-75
2023/05/01 10:07:33;;;;;;;3.45;3.10;;;;;;;;;;8276066;28;20672;-75
2023/05/01 10:12:00;;;;;;;4.17;3.43;;;;;;;;;;8281274;28;20025;-75
2023/05/01 10:16:06;;;;;;;5.28;3.25;;;;;;;;;;8269868;28;20041;-75
2023/05/01 10:20:07;;;;;;;4.57;3.38;;;;;;;;;;8288276;28;20030;-75
2023/05/01 10:24:08;;;;;;;3.20;2.70;;;;;;;;;;8282611;28;20021;-75
2023/05/01 10:28:10;;;;;;;4.03;2.80;;;;;;;;;;8272899;28;20360;-75
2023/05/01 10:32:10;;;;;;;4.72;3.08;;;;;;;;;;8285592;28;20158;-75
2023/05/01 10:36:38;;;;;;;3.40;2.95;;;;;;;;;;8285588;28;20028;-75
2023/05/01 10:40:38;;;;;;;4.28;2.78;;;;;;;;;;8280989;28;20049;-75
2023/05/01 10:44:39;;;;;;;4.88;2.85;;;;;;;;;;8282154;28;20716;-75
2023/05/01 10:48:41;;;;;;;4.30;3.10;;;;;;;;;;8279721;28;20030;-75
2023/05/01 10:53:00;;;;;;;4.88;2.92;;;;;;;;;;8279419;28;20514;-75
2023/05/01 10:57:00;;;;;;;4.78;3.10;;;;;;;;;;8266607;28;20057;-75
2023/05/01 11:01:19;;;;;;;3.95;3.10;;;;;;;;;;8281519;28;20056;-75
2023/05/01 11:05:40;;;;;;;4.55;3.08;;;;;;;;;;8285260;28;20043;-75
2023/05/01 11:09:41;;;;;;;5.32;2.90;;;;;;;;;;8280716;28;20024;-75
2023/05/01 11:14:00;;;;;;;4.10;3.65;;;;;;;;;;8283675;28;20140;-75
2023/05/01 11:18:01;;;;;;;5.60;3.10;;;;;;;;;;8283179;28;20552;-75
2023/05/01 11:22:01;;;;;;;5.75;3.42;;;;;;;;;;8284457;28;20489;-75
2023/05/01 11:26:03;;;;;;;5.43;3.40;;;;;;;;;;8289459;28;20021;-74
2023/05/01 11:30:04;;;;;;;5.50;3.37;;;;;;;;;;8290062;28;20127;-75
2023/05/01 11:34:07;;;;;;;5.85;3.15;;;;;;;;;;8281459;28;20022;-74
2023/05/01 11:38:07;;;;;;;;;;;;;;;;;;8287160;28;20033;-75
2023/05/01 11:42:08;;;;;;;3.42;2.78;;;;;;;;;;8285378;28;19992;-74
2023/05/01 11:46:08;;;;;;;4.45;3.00;;;;;;;;;;8283815;28;20038;-75
2023/05/01 11:50:09;;;;;;;4.47;3.22;;;;;;;;;;8286093;28;20021;-75
2023/05/01 11:54:10;;;;;;;3.42;3.03;;;;;;;;;;8285735;28;20026;-76
2023/05/01 11:58:10;;;;;;;5.65;3.03;;;;;;;;;;8301708;28;20635;-75
2023/05/01 12:02:20;;;;;;;3.90;2.78;;;;;;;;;;8290244;28;20893;-75
2023/05/01 12:06:20;;;;;;;5.40;3.35;;;;;;;;;;8301494;28;20029;-75
2023/05/01 12:10:20;;;;;;;3.63;2.97;;;;;;;;;;8282104;28;20036;-75
2023/05/01 12:14:21;;;;;;;5.55;3.10;;;;;;;;;;8287575;28;20312;-75
2023/05/01 12:18:21;;;;;;;3.80;3.42;;;;;;;;;;8288140;28;20103;-75
2023/05/01 12:22:21;;;;;;;4.45;3.45;;;;;;;;;;8288588;28;20029;-75
2023/05/01 12:26:22;;;;;;;3.95;3.20;;;;;;;;;;8286732;28;20045;-75
2023/05/01 12:30:25;;;;;;;4.05;3.30;;;;;;;;;;8285770;28;20042;-75
2023/05/01 12:34:31;;;;;;;4.90;3.80;;;;;;;;;;8287922;28;20109;-75
2023/05/01 12:38:31;;;;;;;4.57;3.70;;;;;;;;;;8284499;28;20033;-75
2023/05/01 12:42:31;;;;;;;4.25;3.40;;;;;;;;;;8291862;28;20021;-74
2023/05/01 12:46:31;;;;;;;3.50;3.20;;;;;;;;;;8284515;28;20144;-75
2023/05/01 12:50:36;;;;;;;3.55;3.25;;;;;;;;;;8289989;28;20123;-74
2023/05/01 12:54:38;;;;;;;5.78;3.83;;;;;;;;;;8285182;28;20064;-74
2023/05/01 12:58:38;;;;;;;4.10;3.60;;;;;;;;;;8283978;28;20025;-75
2023/05/01 13:02:38;;;;;;;4.32;3.30;;;;;;;;;;8290188;28;21005;-75
2023/05/01 13:06:38;;;;;;;3.40;3.10;;;;;;;;;;8285583;28;20231;-74
2023/05/01 13:10:38;;;;;;;3.20;2.70;;;;;;;;;;8282979;28;20033;-74
2023/05/01 13:14:39;;;;;;;3.22;2.80;;;;;;;;;;8285503;28;20861;-74
2023/05/01 13:18:50;;;;;;;3.80;2.75;;;;;;;;;;8290346;28;20041;-75
2023/05/01 13:22:50;;;;;;;4.68;3.00;;;;;;;;;;8285353;28;20154;-74
2023/05/01 13:26:59;;;;;;;7.43;5.43;;;;;;;;;;8286499;28;20029;-75
2023/05/01 13:31:00;;;;;;;4.78;4.18;;;;;;;;;;8285202;28;20366;-74
2023/05/01 13:35:01;;;;;;;6.30;4.47;;;;;;;;;;8288206;28;20032;-75
2023/05/01 13:39:01;;;;;;;7.53;6.47;;;;;;;;;;8288736;28;20348;-75
2023/05/01 13:43:01;;;;;;;6.22;4.45;;;;;;;;;;8289780;28;20856;-75
2023/05/01 13:47:02;;;;;;;3.10;2.78;;;;;;;;;;8282585;28;21177;-75
2023/05/01 13:51:03;;;;;;;3.57;3.27;;;;;;;;;;8283754;28;20082;-75
2023/05/01 13:55:05;;;;;;;3.10;2.85;;;;;;;;;;8284232;28;20283;-75
2023/05/01 13:59:06;;;;;;;5.40;4.47;;;;;;;;;;8281883;28;20033;-75
2023/05/01 14:03:09;;;;;;;7.50;5.32;;;;;;;;;;8283764;28;20037;-74
2023/05/01 14:07:19;;;;;;;5.67;3.83;;;;;;;;;;8285142;28;20022;-75
2023/05/01 14:11:20;;;;;;;6.25;4.35;;;;;;;;;;8283006;28;20075;-74
2023/05/01 14:15:23;;;;;;;6.13;4.05;;;;;;;;;;8282628;28;20836;-75
2023/05/01 14:19:23;;;;;;;9.48;5.78;;;;;;;;;;8291611;28;20140;-74
2023/05/01 14:23:23;;;;;;;7.10;4.80;;;;;;;;;;8286514;28;21019;-75
2023/05/01 14:27:24;;;;;;;11.48;6.20;;;;;;;;;;8282781;28;20679;-74
2023/05/01 14:31:24;;;;;;;5.13;3.65;;;;;;;;;;8274626;28;20168;-74
2023/05/01 14:35:24;;;;;;;9.95;3.10;;;;;;;;;;8286347;28;20647;-74
2023/05/01 14:39:25;;;;;;;2.90;2.50;;;;;;;;;;8278304;28;20029;-74
2023/05/01 14:43:26;;;;;;;4.82;2.60;;;;;;;;;;8280017;28;20037;-76
2023/05/01 14:47:26;;;;;;;3.03;2.22;;;;;;;;;;8283320;28;20087;-76
2023/05/01 14:51:27;;;;;;;4.05;2.70;;;;;;;;;;8285148;28;20116;-75
2023/05/01 14:55:29;;;;;;;3.33;2.40;;;;;;;;;;8279331;28;20025;-75
2023/05/01 14:59:29;;;;;;;3.17;2.60;;;;;;;;;;8281687;28;20029;-74
2023/05/01 15:03:30;;;;;;;7.00;3.90;;;;;;;;;;8282225;28;20045;-75
2023/05/01 15:07:31;;;;;;;7.32;5.07;;;;;;;;;;8286353;28;20288;-75
2023/05/01 15:11:32;;;;;;;7.10;4.60;;;;;;;;;;8276381;28;20516;-75
2023/05/01 15:15:33;;;;;;;5.03;2.90;;;;;;;;;;8284088;28;20116;-75
2023/05/01 15:19:33;;;;;;;3.53;2.73;;;;;;;;;;8293940;28;20022;-75
2023/05/01 15:23:33;;;;;;;4.25;3.28;;;;;;;;;;8284609;28;20888;-75
2023/05/01 15:27:34;;;;;;;3.77;3.00;;;;;;;;;;8282191;28;20128;-75
2023/05/01 15:31:34;;;;;;;2.97;2.67;;;;;;;;;;8279936;28;20836;-75
2023/05/01 15:35:34;;;;;;;2.92;2.60;;;;;;;;;;8280703;28;20892;-75
2023/05/01 15:39:35;;;;;;;6.03;3.10;;;;;;;;;;8286218;28;20108;-76
2023/05/01 15:43:35;;;;;;;2.55;2.35;;;;;;;;;;8293209;28;20079;-75
2023/05/01 15:47:36;;;;;;;4.35;2.72;;;;;;;;;;8291749;28;20493;-74
2023/05/01 15:51:36;;;;;;;2.90;2.60;;;;;;;;;;8294093;28;20116;-75
2023/05/01 15:55:36;;;;;;;2.65;2.30;;;;;;;;;;8284510;28;20036;-75
2023/05/01 15:59:38;;;;;;;5.00;2.42;;;;;;;;;;8278707;28;20040;-75
2023/05/01 16:03:39;;;;;;;3.55;2.50;;;;;;;;;;8286321;28;20045;-76
2023/05/01 16:07:39;;;;;;;2.10;2.00;;;;;;;;;;8282464;28;20040;-75
2023/05/01 16:11:39;;;;;;;3.45;2.50;;;;;;;;;;8280965;28;20027;-76
2023/05/01 16:15:40;;;;;;;4.43;3.10;;;;;;;;;;8282703;28;21132;-75
2023/05/01 16:19:40;;;;;;;2.67;2.40;;;;;;;;;;8281559;28;20045;-75
2023/05/01 16:23:40;;;;;;;8.82;5.32;;;;;;;;;;8282634;28;20025;-75
2023/05/01 16:27:43;;;;;;;3.97;2.70;;;;;;;;;;8286671;28;20096;-75
2023/05/01 16:31:46;;;;;;;3.50;2.40;;;;;;;;;;8292531;28;20348;-76
2023/05/01 16:35:47;;;;;;;3.50;3.05;;;;;;;;;;8287059;28;20104;-75
2023/05/01 16:39:48;;;;;;;4.50;3.05;;;;;;;;;;8300559;28;20557;-75
2023/05/01 16:43:48;;;;;;;4.35;3.25;;;;;;;;;;8286575;28;20446;-75
2023/05/01 16:47:48;;;;;;;2.55;2.35;;;;;;;;;;8286436;28;20033;-75
2023/05/01 16:51:49;;;;;;;3.85;2.55;;;;;;;;;;8286452;28;20186;-75
2023/05/01 16:55:49;;;;;;;5.38;2.60;;;;;;;;;;8286224;28;20029;-75
2023/05/01 16:59:50;;;;;;;4.80;2.70;;;;;;;;;;8286540;28;20112;-75
2023/05/01 17:03:50;;;;;;;4.95;3.00;;;;;;;;;;8285538;28;20039;-75
2023/05/01 17:07:50;;;;;;;6.47;3.70;;;;;;;;;;8283921;28;20021;-75
2023/05/01 17:11:51;;;;;;;7.43;3.03;;;;;;;;;;8282691;28;20275;-74
2023/05/01 17:15:51;;;;;;;4.10;2.00;;;;;;;;;;8287034;28;20044;-74
2023/05/01 17:19:51;;;;;;;3.30;1.92;;;;;;;;;;8293545;28;21182;-74
2023/05/01 17:23:51;;;;;;;3.00;1.83;;;;;;;;;;8287779;28;20025;-74
2023/05/01 17:27:52;;;;;;;2.33;2.03;;;;;;;;;;8283011;28;20025;-73
2023/05/01 17:31:52;;;;;;;3.65;2.17;;;;;;;;;;8284955;28;20372;-73
2023/05/01 17:35:54;;;;;;;2.87;2.20;;;;;;;;;;8281901;28;20029;-73
2023/05/01 17:39:55;;;;;;;5.75;2.40;;;;;;;;;;8281682;28;20037;-74
2023/05/01 17:43:55;;;;;;;4.03;2.58;;;;;;;;;;8280634;28;20021;-74
2023/05/01 17:47:56;;;;;;;2.53;2.20;;;;;;;;;;8287853;28;20044;-74
2023/05/01 17:51:57;;;;;;;3.40;2.28;;;;;;;;;;8283648;28;20124;-73
2023/05/01 17:55:57;;;;;;;2.08;1.98;;;;;;;;;;8282924;28;20816;-81
2023/05/01 17:59:57;;;;;;;2.72;2.53;;;;;;;;;;8282006;28;20056;-74
2023/05/01 18:03:58;;;;;;;4.35;2.50;;;;;;;;;;8283756;28;20037;-73
2023/05/01 18:07:58;;;;;;;6.68;2.75;;;;;;;;;;8279744;28;20398;-74
2023/05/01 18:11:58;;;;;;;4.30;2.73;;;;;;;;;;8286729;28;20029;-74
2023/05/01 18:15:58;;;;;;;2.92;2.63;;;;;;;;;;8283605;28;20037;-73
2023/05/01 18:19:59;;;;;;;2.67;2.40;;;;;;;;;;8289856;28;20597;-73
2023/05/01 18:24:01;;;;;;;3.97;2.13;;;;;;;;;;8294065;28;20030;-73
2023/05/01 18:28:01;;;;;;;3.33;2.20;;;;;;;;;;8287700;28;20017;-73
2023/05/01 18:32:02;;;;;;;3.42;1.92;;;;;;;;;;8282996;28;20041;-72
2023/05/01 18:36:02;;;;;;;4.43;2.67;;;;;;;;;;8281769;28;20044;-73
2023/05/01 18:40:04;;;;;;;3.90;2.42;;;;;;;;;;8280111;28;20029;-73
2023/05/01 18:44:04;;;;;;;2.25;2.05;;;;;;;;;;8281557;28;20059;-72
2023/05/01 18:48:05;;;;;;;3.30;1.80;;;;;;;;;;8280504;28;20037;-72
2023/05/01 18:52:05;;;;;;;3.35;1.77;;;;;;;;;;8284002;28;20716;-73
2023/05/01 18:56:08;;;;;;;4.23;1.80;;;;;;;;;;8289819;28;20029;-73
2023/05/01 19:00:15;;;;;;;1.80;1.70;;;;;;;;;;8286879;28;20103;-73
2023/05/01 19:04:17;;;;;;;1.92;1.67;;;;;;;;;;8281871;28;20040;-73
2023/05/01 19:08:17;;;;;;;2.83;1.80;;;;;;;;;;8281047;28;20033;-73
2023/05/01 19:12:17;;;;;;;3.97;1.70;;;;;;;;;;8290489;28;20798;-73
2023/05/01 19:16:18;;;;;;;2.28;1.70;;;;;;;;;;8289380;28;20115;-74
2023/05/01 19:20:18;;;;;;;2.95;2.10;;;;;;;;;;8279728;28;20036;-73
2023/05/01 19:24:18;;;;;;;2.33;1.80;;;;;;;;;;8285724;28;20052;-72
2023/05/01 19:28:18;;;;;;;2.00;1.80;;;;;;;;;;8281084;28;20280;-73
2023/05/01 19:32:19;;;;;;;2.47;2.10;;;;;;;;;;8284415;28;20447;-73
2023/05/01 19:36:19;;;;;;;2.38;1.92;;;;;;;;;;8282537;28;20440;-71
2023/05/01 19:40:19;;;;;;;3.17;2.00;;;;;;;;;;8280063;28;20036;-72
2023/05/01 19:44:20;;;;;;;3.17;2.53;;;;;;;;;;8280031;28;20033;-72
2023/05/01 19:48:21;;;;;;;3.22;2.92;;;;;;;;;;8281483;28;20041;-72
2023/05/01 19:52:21;;;;;;;4.75;4.07;;;;;;;;;;8280034;28;20035;-71
2023/05/01 19:56:23;;;;;;;9.90;6.67;;;;;;;;;;8281685;28;20021;-71
2023/05/01 20:00:23;;;;;;;5.63;4.50;;;;;;;;;;8293178;28;20120;-71
2023/05/01 20:04:23;;;;;;;3.20;2.90;;;;;;;;;;8286975;28;20120;-71
2023/05/01 20:08:24;;;;;;;2.60;2.40;;;;;;;;;;8282691;28;21120;-72
2023/05/01 20:12:24;;;;;;;5.40;2.60;;;;;;;;;;8288341;28;20080;-72
2023/05/01 20:16:26;;;;;;;2.03;1.93;;;;;;;;;;8284227;28;20275;-71
2023/05/01 20:20:26;;;;;;;2.42;2.20;;;;;;;;;;8284792;28;20283;-71
2023/05/01 20:24:27;;;;;;;3.30;2.77;;;;;;;;;;8286843;28;20053;-72
2023/05/01 20:28:27;;;;;;;4.07;3.13;;;;;;;;;;8284088;28;20034;-72
2023/05/01 20:32:28;;;;;;;2.72;2.45;;;;;;;;;;8292401;28;20180;-72
2023/05/01 20:36:28;;;;;;;4.15;3.20;;;;;;;;;;8276363;28;20739;-71
2023/05/01 20:40:29;;;;;;;4.43;3.60;;;;;;;;;;8291548;28;20044;-72
2023/05/01 20:44:29;;;;;;;4.22;3.33;;;;;;;;;;8282109;28;20127;-71
2023/05/01 20:48:29;;;;;;;2.95;2.75;;;;;;;;;;8285586;28;20044;-72
2023/05/01 20:52:29;;;;;;;4.03;2.60;;;;;;;;;;8291696;28;20783;-71
2023/05/01 20:56:30;;;;;;;2.40;2.20;;;;;;;;;;8294267;28;20455;-72
2023/05/01 21:00:30;;;;;;;2.33;2.15;;;;;;;;;;8288300;28;20944;-71
2023/05/01 21:04:30;;;;;;;2.88;2.67;;;;;;;;;;8285054;28;20046;-72
2023/05/01 21:08:32;;;;;;;3.13;2.17;;;;;;;;;;8285576;28;20013;-71
2023/05/01 21:12:32;;;;;;;2.65;2.30;;;;;;;;;;8289308;28;20462;-71
2023/05/01 21:16:32;;;;;;;3.55;2.40;;;;;;;;;;8288007;28;20401;-71
2023/05/01 21:20:33;;;;;;;2.78;2.58;;;;;;;;;;8287259;28;20052;-71
2023/05/01 21:24:35;;;;;;;3.10;2.20;;;;;;;;;;8287434;28;20041;-71
2023/05/01 21:28:37;;;;;;;2.35;2.15;;;;;;;;;;8288743;28;20025;-71
2023/05/01 21:32:38;;;;;;;2.60;2.40;;;;;;;;;;8290208;28;20033;-71
2023/05/01 21:36:45;;;;;;;4.05;2.40;;;;;;;;;;8279875;28;20025;-71
2023/05/01 21:40:45;;;;;;;2.70;2.05;;;;;;;;;;8281512;28;20068;-71
2023/05/01 21:44:45;;;;;;;3.13;2.42;;;;;;;;;;8296253;28;20895;-71
2023/05/01 21:48:50;;;;;;;2.70;2.50;;;;;;;;;;8280131;28;20119;-71
2023/05/01 21:52:50;;;;;;;2.58;2.38;;;;;;;;;;8282583;28;20037;-71
2023/05/01 21:56:50;;;;;;;2.53;2.23;;;;;;;;;;8288870;28;20072;-71
2023/05/01 22:00:51;;;;;;;2.67;2.47;;;;;;;;;;8283090;28;20276;-71
2023/05/01 22:04:54;;;;;;;2.88;2.30;;;;;;;;;;8294279;28;20116;-71
2023/05/01 22:08:54;;;;;;;2.33;2.13;;;;;;;;;;8287927;28;20033;-71
2023/05/01 22:12:54;;;;;;;2.53;2.33;;;;;;;;;;8283157;28;20048;-71
2023/05/01 22:16:54;;;;;;;2.22;2.03;;;;;;;;;;8282850;28;20276;-71
2023/05/01 22:20:55;;;;;;;2.45;2.00;;;;;;;;;;8281202;28;20769;-71
2023/05/01 22:24:55;;;;;;;3.70;2.00;;;;;;;;;;8282147;28;20017;-71
2023/05/01 22:28:55;;;;;;;2.20;1.92;;;;;;;;;;8287776;28;20026;-71
2023/05/01 22:32:55;;;;;;;3.30;2.40;;;;;;;;;;8283475;28;20079;-71
2023/05/01 22:36:56;;;;;;;2.65;2.25;;;;;;;;;;8283029;28;20021;-71
2023/05/01 22:40:56;;;;;;;2.72;2.22;;;;;;;;;;8283846;28;20036;-71
2023/05/01 22:44:56;;;;;;;3.10;1.90;;;;;;;;;;8282685;28;20427;-71
2023/05/01 22:48:56;;;;;;;2.25;2.05;;;;;;;;;;8291964;28;20038;-71
2023/05/01 22:52:56;;;;;;;2.50;2.30;;;;;;;;;;8282863;28;20022;-71
2023/05/01 22:56:57;;;;;;;2.35;2.20;;;;;;;;;;8284793;28;20280;-71
2023/05/01 23:00:57;;;;;;;1.92;1.83;;;;;;;;;;8280778;28;20052;-71
2023/05/01 23:04:57;;;;;;;2.10;1.90;;;;;;;;;;8291173;28;20030;-71
2023/05/01 23:08:57;;;;;;;2.20;2.00;;;;;;;;;;8281735;28;20087;-71
2023/05/01 23:12:58;;;;;;;2.55;2.33;;;;;;;;;;8286035;28;20026;-71
2023/05/01 23:16:59;;;;;;;2.17;2.08;;;;;;;;;;8281863;28;20021;-71
2023/05/01 23:21:00;;;;;;;2.55;2.35;;;;;;;;;;8284764;28;20908;-71
2023/05/01 23:25:00;;;;;;;2.10;2.00;;;;;;;;;;8282424;28;20060;-71
2023/05/01 23:29:00;;;;;;;2.25;2.05;;;;;;;;;;8286795;28;20449;-71
2023/05/01 23:33:00;;;;;;;2.40;2.20;;;;;;;;;;8281392;28;20037;-72
2023/05/01 23:37:00;;;;;;;2.40;2.20;;;;;;;;;;8288952;28;20291;-71
2023/05/01 23:41:01;;;;;;;2.55;2.35;;;;;;;;;;8294930;28;20025;-71
2023/05/01 23:45:01;;;;;;;4.85;2.10;;;;;;;;;;8289655;28;20022;-70
2023/05/01 23:49:01;;;;;;;2.55;2.35;;;;;;;;;;8294197;28;20429;-71
2023/05/01 23:53:06;;;;;;;2.95;2.50;;;;;;;;;;8301580;28;20026;-71
2023/05/01 23:57:06;;;;;;;3.17;2.88;;;;;;;;;;8297526;28;20029;-71
